Terminal Aerodrome Forecast
Issued by NWS

Home | Current Version | Previous Version | Text Only | Print | Product List | Glossary On
Versions: 1 2 3 4 5 6 7 8 9 10 11 12 13 14 15 16 17 18 19
000
FTUS41 KGYX 271720
TAFHIE
TAF
KHIE 271720Z 2718/2818 33005KT P6SM SCT050 SCT250
     FM280700 00000KT 1/2SM FG VV001
     FM281200 VRB03KT P6SM BKN050 OVC100=

USA.gov is the U.S. government's official web portal to all federal, state and local government web resources and services.